createdAt,value
2023-04-22T00:00:06.805Z,9.72
2023-04-22T00:02:37.196Z,9.60
2023-04-22T00:05:06.480Z,9.40
2023-04-22T00:07:34.278Z,9.51
2023-04-22T00:10:01.966Z,9.54
2023-04-22T00:12:29.769Z,9.43
2023-04-22T00:14:57.448Z,9.30
2023-04-22T00:17:25.313Z,9.16
2023-04-22T00:19:53.120Z,9.22
2023-04-22T00:22:20.896Z,9.24
2023-04-22T00:24:48.544Z,9.14
2023-04-22T00:27:16.291Z,9.15
2023-04-22T00:29:44.013Z,9.27
2023-04-22T00:32:11.769Z,9.19
2023-04-22T00:34:39.472Z,9.04
2023-04-22T00:37:07.331Z,8.46
2023-04-22T00:39:35.430Z,8.99
2023-04-22T00:42:03.200Z,8.91
2023-04-22T00:44:30.955Z,9.09
2023-04-22T00:46:59.482Z,8.96
2023-04-22T00:49:27.575Z,8.92
2023-04-22T00:51:55.396Z,8.89
2023-04-22T00:54:23.299Z,8.66
2023-04-22T00:56:51.110Z,8.92
2023-04-22T00:59:18.814Z,8.91
2023-04-22T01:01:46.647Z,8.70
2023-04-22T01:04:15.393Z,8.91
2023-04-22T01:06:44.891Z,8.92
2023-04-22T01:09:12.600Z,9.02
2023-04-22T01:11:40.367Z,8.89
2023-04-22T01:14:08.316Z,9.07
2023-04-22T01:16:39.161Z,9.03
2023-04-22T01:19:08.275Z,9.10
2023-04-22T01:21:36.010Z,8.75
2023-04-22T01:24:03.772Z,8.04
2023-04-22T01:26:31.596Z,7.99
2023-04-22T01:28:59.369Z,8.12
2023-04-22T01:31:27.140Z,8.32
2023-04-22T01:33:54.859Z,8.41
2023-04-22T01:36:22.595Z,8.45
2023-04-22T01:38:50.314Z,8.56
2023-04-22T01:41:18.060Z,8.64
2023-04-22T01:43:45.756Z,8.66
2023-04-22T01:46:13.524Z,8.68
2023-04-22T01:48:41.267Z,8.63
2023-04-22T01:51:09.413Z,8.38
2023-04-22T01:53:37.413Z,8.34
2023-04-22T01:56:05.280Z,8.36
2023-04-22T01:58:33.391Z,8.50
2023-04-22T02:01:01.232Z,8.57
2023-04-22T02:03:29.056Z,8.48
2023-04-22T02:05:56.983Z,8.50
2023-04-22T02:08:24.717Z,8.35
2023-04-22T02:10:52.436Z,7.56
2023-04-22T02:13:20.170Z,8.13
2023-04-22T02:15:49.949Z,7.87
2023-04-22T02:18:18.808Z,7.77
2023-04-22T02:20:46.560Z,7.94
2023-04-22T02:23:14.288Z,7.18
2023-04-22T02:25:49.315Z,7.17
2023-04-22T02:28:19.381Z,7.15
2023-04-22T02:30:47.073Z,7.50
2023-04-22T02:33:15.782Z,7.66
2023-04-22T02:35:43.499Z,7.70
2023-04-22T02:38:17.279Z,6.81
2023-04-22T02:40:45.001Z,6.73
2023-04-22T02:43:13.341Z,6.89
2023-04-22T02:45:41.126Z,7.29
2023-04-22T02:48:09.188Z,7.31
2023-04-22T02:50:37.183Z,7.14
2023-04-22T02:53:05.050Z,7.43
2023-04-22T02:55:32.809Z,7.41
2023-04-22T02:58:00.628Z,7.50
2023-04-22T03:00:28.385Z,7.44
2023-04-22T03:02:56.477Z,7.58
2023-04-22T03:05:30.640Z,7.36
2023-04-22T03:07:58.730Z,6.74
2023-04-22T03:10:29.781Z,7.16
2023-04-22T03:12:57.572Z,7.26
2023-04-22T03:15:25.534Z,6.59
2023-04-22T03:17:53.362Z,6.58
2023-04-22T03:20:22.152Z,6.06
2023-04-22T03:22:49.959Z,6.42
2023-04-22T03:25:17.922Z,6.25
2023-04-22T03:27:51.436Z,5.99
2023-04-22T03:30:19.399Z,6.42
2023-04-22T03:32:48.302Z,6.61
2023-04-22T03:35:22.687Z,6.17
2023-04-22T03:37:52.204Z,6.56
2023-04-22T03:40:25.463Z,6.38
2023-04-22T03:42:54.278Z,6.10
2023-04-22T03:45:23.012Z,6.44
2023-04-22T03:48:03.243Z,6.77
2023-04-22T03:50:39.483Z,6.78
2023-04-22T03:53:08.005Z,6.34
2023-04-22T03:55:36.379Z,6.55
2023-04-22T03:58:04.263Z,6.60
2023-04-22T04:00:31.971Z,6.57
2023-04-22T04:03:09.353Z,6.47
2023-04-22T04:05:38.277Z,6.58
2023-04-22T04:08:06.418Z,6.95
2023-04-22T04:10:34.215Z,7.01
2023-04-22T04:13:03.636Z,7.13
2023-04-22T04:15:39.143Z,7.27
2023-04-22T04:18:08.082Z,7.24
2023-04-22T04:20:35.799Z,7.19
2023-04-22T04:23:03.568Z,7.18
2023-04-22T04:25:38.848Z,7.35
2023-04-22T04:28:11.226Z,7.47
2023-04-22T04:30:41.699Z,7.30
2023-04-22T04:33:10.179Z,7.47
2023-04-22T04:35:39.666Z,7.62
2023-04-22T04:38:09.320Z,6.46
2023-04-22T04:40:37.704Z,7.04
2023-04-22T04:43:14.391Z,7.45
2023-04-22T04:45:49.978Z,7.78
2023-04-22T04:48:27.778Z,7.94
2023-04-22T04:51:01.992Z,8.07
2023-04-22T04:53:32.966Z,8.08
2023-04-22T04:56:00.815Z,8.18
2023-04-22T04:58:30.081Z,8.29
2023-04-22T05:01:18.031Z,8.54
2023-04-22T05:03:47.371Z,8.57
2023-04-22T05:06:17.833Z,8.60
2023-04-22T05:08:50.644Z,8.65
2023-04-22T05:11:19.744Z,8.92
2023-04-22T05:13:50.249Z,8.82
2023-04-22T05:16:24.465Z,8.86
2023-04-22T05:18:52.227Z,8.99
2023-04-22T05:21:20.352Z,8.95
2023-04-22T05:23:48.694Z,9.00
2023-04-22T05:26:16.539Z,8.88
2023-04-22T05:28:47.174Z,8.98
2023-04-22T05:31:15.587Z,8.99
2023-04-22T05:33:43.535Z,9.40
2023-04-22T05:36:11.286Z,9.41
2023-04-22T05:38:39.030Z,9.18
2023-04-22T05:41:06.741Z,9.47
2023-04-22T05:43:34.616Z,9.75
2023-04-22T05:46:08.741Z,9.75
2023-04-22T05:48:39.279Z,9.52
2023-04-22T05:51:10.505Z,9.77
2023-04-22T05:53:38.948Z,10.09
2023-04-22T05:56:06.704Z,10.03
2023-04-22T05:58:34.570Z,10.28
2023-04-22T06:01:09.894Z,10.10
2023-04-22T06:03:58.116Z,10.34
2023-04-22T06:06:27.544Z,10.62
2023-04-22T06:08:55.458Z,10.65
2023-04-22T06:11:23.144Z,10.32
2023-04-22T06:13:51.355Z,10.52
2023-04-22T06:16:19.184Z,10.74
2023-04-22T06:18:47.017Z,10.73
2023-04-22T06:21:15.644Z,10.46
2023-04-22T06:23:43.430Z,10.69
2023-04-22T06:26:11.233Z,10.74
2023-04-22T06:28:39.642Z,11.03
2023-04-22T06:31:12.250Z,11.17
2023-04-22T06:33:41.293Z,11.08
2023-04-22T06:36:09.327Z,11.19
2023-04-22T06:38:38.376Z,11.36
2023-04-22T06:41:22.868Z,11.47
2023-04-22T06:43:53.003Z,11.38
2023-04-22T06:46:43.825Z,11.74
2023-04-22T06:49:30.355Z,11.46
2023-04-22T06:52:07.954Z,11.45
2023-04-22T06:54:36.337Z,10.98
2023-04-22T06:57:04.187Z,10.30
2023-04-22T06:59:31.908Z,11.17
2023-04-22T07:01:59.957Z,11.66
2023-04-22T07:04:31.722Z,11.89
2023-04-22T07:07:01.306Z,12.07
2023-04-22T07:09:29.829Z,12.35
2023-04-22T07:11:58.929Z,12.67
2023-04-22T07:14:30.263Z,12.45
2023-04-22T07:16:58.720Z,12.23
2023-04-22T07:19:27.022Z,12.74
2023-04-22T07:21:54.857Z,13.11
2023-04-22T07:24:23.613Z,13.48
2023-04-22T07:26:51.358Z,13.28
2023-04-22T07:29:19.338Z,12.83
2023-04-22T07:31:47.190Z,13.11
2023-04-22T07:34:14.954Z,13.34
2023-04-22T07:36:42.693Z,13.31
2023-04-22T07:39:10.384Z,13.37
2023-04-22T07:41:38.212Z,13.67
2023-04-22T07:44:05.928Z,13.69
2023-04-22T07:46:34.333Z,13.33
2023-04-22T07:49:02.044Z,13.59
2023-04-22T07:51:31.256Z,13.32
2023-04-22T07:53:58.942Z,13.45
2023-04-22T07:56:26.839Z,13.25
2023-04-22T07:58:54.501Z,12.48
2023-04-22T08:01:22.285Z,13.03
2023-04-22T08:03:50.173Z,13.28
2023-04-22T08:06:18.024Z,12.82
2023-04-22T08:08:45.966Z,12.81
2023-04-22T08:11:13.811Z,12.72
2023-04-22T08:13:41.472Z,12.52
2023-04-22T08:16:09.331Z,13.08
2023-04-22T08:18:37.109Z,13.19
2023-04-22T08:21:04.903Z,13.48
2023-04-22T08:23:32.656Z,13.44
2023-04-22T08:26:00.423Z,13.03
2023-04-22T08:28:28.214Z,13.71
2023-04-22T08:30:55.951Z,13.73
2023-04-22T08:33:25.874Z,13.53
2023-04-22T08:35:54.794Z,13.55
2023-04-22T08:38:22.473Z,13.92
2023-04-22T08:40:50.268Z,14.22
2023-04-22T08:43:17.928Z,14.60
2023-04-22T08:45:45.974Z,14.62
2023-04-22T08:48:13.657Z,15.61
2023-04-22T08:50:41.464Z,14.97
2023-04-22T08:53:09.135Z,15.29
2023-04-22T08:55:36.890Z,15.50
2023-04-22T08:58:06.150Z,16.10
2023-04-22T09:00:34.710Z,16.05
2023-04-22T09:03:03.376Z,15.11
2023-04-22T09:05:33.758Z,15.18
2023-04-22T09:08:01.539Z,15.74
2023-04-22T09:10:31.098Z,15.49
2023-04-22T09:13:00.221Z,15.63
2023-04-22T09:15:27.898Z,15.84
2023-04-22T09:17:56.746Z,15.83
2023-04-22T09:20:28.641Z,16.45
2023-04-22T09:22:57.206Z,15.84
2023-04-22T09:25:26.519Z,15.36
2023-04-22T09:27:58.351Z,16.07
2023-04-22T09:30:30.780Z,15.38
2023-04-22T09:33:02.623Z,15.18
2023-04-22T09:35:40.539Z,15.15
2023-04-22T09:38:09.442Z,14.78
2023-04-22T09:40:38.857Z,14.95
2023-04-22T09:43:07.490Z,14.86
2023-04-22T09:45:42.259Z,15.62
2023-04-22T09:48:11.559Z,15.79
2023-04-22T09:50:43.430Z,15.05
2023-04-22T09:53:16.928Z,13.85
2023-04-22T09:55:49.562Z,13.45
2023-04-22T09:58:18.523Z,12.75
2023-04-22T10:00:50.683Z,13.56
2023-04-22T10:03:19.228Z,13.22
2023-04-22T10:05:47.242Z,14.03
2023-04-22T10:08:15.703Z,12.82
2023-04-22T10:10:44.017Z,13.64
2023-04-22T10:13:11.895Z,14.51
2023-04-22T10:15:41.476Z,14.99
2023-04-22T10:18:12.027Z,14.85
2023-04-22T10:20:41.087Z,14.58
2023-04-22T10:23:16.308Z,14.93
2023-04-22T10:25:44.995Z,14.47
2023-04-22T10:28:14.409Z,14.83
2023-04-22T10:30:42.209Z,14.69
2023-04-22T10:33:23.858Z,14.94
2023-04-22T10:36:11.042Z,14.91
2023-04-22T10:38:59.625Z,15.42
2023-04-22T10:41:34.509Z,15.91
2023-04-22T10:44:08.912Z,14.63
2023-04-22T10:46:40.336Z,15.03
2023-04-22T10:49:11.672Z,14.44
2023-04-22T10:51:43.743Z,14.31
2023-04-22T10:54:28.795Z,15.06
2023-04-22T10:57:08.805Z,14.88
2023-04-22T10:59:42.648Z,14.65
2023-04-22T11:02:11.767Z,14.85
2023-04-22T11:04:39.976Z,14.84
2023-04-22T11:07:26.485Z,14.66
2023-04-22T11:10:07.348Z,14.32
2023-04-22T11:12:35.022Z,15.11
2023-04-22T11:15:18.567Z,14.06
2023-04-22T11:17:47.546Z,13.80
2023-04-22T11:20:18.024Z,13.75
2023-04-22T11:22:47.589Z,14.44
2023-04-22T11:25:15.466Z,13.98
2023-04-22T11:27:43.751Z,14.04
2023-04-22T11:30:18.854Z,13.46
2023-04-22T11:32:50.761Z,13.75
2023-04-22T11:35:32.216Z,13.70
2023-04-22T11:38:01.688Z,14.35
2023-04-22T11:40:35.842Z,13.66
2023-04-22T11:43:06.504Z,14.19
2023-04-22T11:45:34.992Z,13.76
2023-04-22T11:48:03.344Z,14.54
2023-04-22T11:50:32.942Z,14.74
2023-04-22T11:53:02.518Z,14.45
2023-04-22T11:55:34.728Z,14.20
2023-04-22T11:58:12.473Z,14.43
2023-04-22T12:00:46.729Z,14.09
2023-04-22T12:03:18.257Z,14.22
2023-04-22T12:05:47.179Z,14.72
2023-04-22T12:08:19.034Z,14.39
2023-04-22T12:10:54.727Z,15.15
2023-04-22T12:13:33.047Z,14.78
2023-04-22T12:16:04.695Z,14.78
2023-04-22T12:18:39.959Z,14.78
2023-04-22T12:21:07.704Z,15.06
2023-04-22T12:24:11.311Z,14.60
2023-04-22T12:26:39.000Z,15.02
2023-04-22T12:29:06.868Z,14.91
2023-04-22T12:31:34.691Z,15.50
2023-04-22T12:34:02.630Z,14.56
2023-04-22T12:36:32.477Z,14.52
2023-04-22T12:39:00.300Z,14.41
2023-04-22T12:41:28.099Z,14.73
2023-04-22T12:43:55.822Z,14.03
2023-04-22T12:46:23.720Z,14.23
2023-04-22T12:48:51.591Z,14.27
2023-04-22T12:51:19.329Z,14.53
2023-04-22T12:53:47.028Z,14.12
2023-04-22T12:56:14.768Z,14.07
2023-04-22T12:58:42.436Z,14.49
2023-04-22T13:01:10.179Z,14.69
2023-04-22T13:03:37.989Z,15.22
2023-04-22T13:06:06.047Z,15.30
2023-04-22T13:08:33.727Z,15.00
2023-04-22T13:11:01.489Z,15.22
2023-04-22T13:13:29.204Z,15.52
2023-04-22T13:15:57.063Z,15.15
2023-04-22T13:18:24.889Z,14.97
2023-04-22T13:20:52.609Z,15.29
2023-04-22T13:23:21.772Z,15.51
2023-04-22T13:25:50.408Z,15.56
2023-04-22T13:28:18.196Z,15.77
2023-04-22T13:30:45.958Z,15.86
2023-04-22T13:33:13.649Z,16.13
2023-04-22T13:35:41.656Z,15.74
2023-04-22T13:38:09.410Z,14.64
2023-04-22T13:40:37.147Z,14.78
2023-04-22T13:43:04.827Z,14.78
2023-04-22T13:45:32.578Z,14.95
2023-04-22T13:48:00.372Z,15.41
2023-04-22T13:50:28.119Z,15.59
2023-04-22T13:52:56.508Z,15.47
2023-04-22T13:55:24.315Z,15.99
2023-04-22T13:57:52.097Z,16.00
2023-04-22T14:00:20.914Z,16.16
2023-04-22T14:02:48.969Z,15.91
2023-04-22T14:05:17.084Z,15.92
2023-04-22T14:07:44.796Z,15.94
2023-04-22T14:10:13.820Z,14.99
2023-04-22T14:12:41.994Z,15.18
2023-04-22T14:15:11.250Z,15.66
2023-04-22T14:17:39.909Z,15.76
2023-04-22T14:20:08.814Z,15.79
2023-04-22T14:22:36.561Z,15.50
2023-04-22T14:25:04.542Z,16.13
2023-04-22T14:27:32.814Z,16.23
2023-04-22T14:30:01.293Z,16.01
2023-04-22T14:32:29.347Z,16.08
2023-04-22T14:34:57.194Z,16.45
2023-04-22T14:37:25.056Z,16.10
2023-04-22T14:39:52.823Z,15.70
2023-04-22T14:42:20.517Z,15.21
2023-04-22T14:44:48.354Z,15.59
2023-04-22T14:47:16.157Z,15.79
2023-04-22T14:49:43.861Z,16.02
2023-04-22T14:52:11.529Z,15.61
2023-04-22T14:54:39.277Z,15.68
2023-04-22T14:57:07.155Z,15.64
2023-04-22T14:59:35.021Z,15.74
2023-04-22T15:02:03.246Z,15.66
2023-04-22T15:04:31.330Z,15.96
2023-04-22T15:07:00.055Z,16.07
2023-04-22T15:09:27.924Z,15.45
2023-04-22T15:11:56.516Z,15.27
2023-04-22T15:14:24.378Z,14.94
2023-04-22T15:16:52.113Z,15.74
2023-04-22T15:19:19.776Z,16.09
2023-04-22T15:21:47.607Z,15.83
2023-04-22T15:24:15.297Z,16.11
2023-04-22T15:26:43.171Z,16.26
2023-04-22T15:29:11.322Z,15.89
2023-04-22T15:31:39.114Z,16.26
2023-04-22T15:34:06.930Z,16.27
2023-04-22T15:36:34.689Z,15.86
2023-04-22T15:39:04.252Z,15.82
2023-04-22T15:41:35.520Z,15.31
2023-04-22T15:44:03.667Z,15.48
2023-04-22T15:46:33.051Z,15.54
2023-04-22T15:49:00.805Z,15.54
2023-04-22T15:51:28.716Z,15.88
2023-04-22T15:53:59.765Z,15.14
2023-04-22T15:56:29.477Z,15.65
2023-04-22T15:58:57.200Z,16.02
2023-04-22T16:01:24.958Z,16.43
2023-04-22T16:03:52.779Z,16.10
2023-04-22T16:06:20.737Z,16.00
2023-04-22T16:08:48.552Z,15.66
2023-04-22T16:11:16.367Z,15.79
2023-04-22T16:13:44.448Z,15.87
2023-04-22T16:16:12.257Z,16.02
2023-04-22T16:18:42.123Z,16.20
2023-04-22T16:21:11.475Z,16.20
2023-04-22T16:23:39.192Z,16.26
2023-04-22T16:26:07.023Z,16.29
2023-04-22T16:28:34.726Z,16.27
2023-04-22T16:31:02.535Z,16.24
2023-04-22T16:33:30.262Z,16.07
2023-04-22T16:35:58.017Z,16.10
2023-04-22T16:38:25.848Z,15.94
2023-04-22T16:40:54.316Z,16.02
2023-04-22T16:43:22.208Z,15.97
2023-04-22T16:45:50.037Z,15.91
2023-04-22T16:48:17.719Z,15.84
2023-04-22T16:50:45.616Z,15.86
2023-04-22T16:53:13.286Z,15.86
2023-04-22T16:55:41.504Z,15.82
2023-04-22T16:58:09.189Z,15.60
2023-04-22T17:00:37.473Z,15.78
2023-04-22T17:03:06.159Z,15.37
2023-04-22T17:05:34.006Z,14.81
2023-04-22T17:08:02.098Z,14.55
2023-04-22T17:10:30.029Z,14.87
2023-04-22T17:12:57.763Z,14.93
2023-04-22T17:15:25.586Z,14.88
2023-04-22T17:17:53.320Z,13.97
2023-04-22T17:20:21.023Z,14.13
2023-04-22T17:22:48.677Z,14.50
2023-04-22T17:25:16.484Z,13.58
2023-04-22T17:27:44.200Z,12.79
2023-04-22T17:30:12.375Z,13.22
2023-04-22T17:32:40.132Z,13.33
2023-04-22T17:35:09.652Z,12.33
2023-04-22T17:37:37.370Z,12.46
2023-04-22T17:40:08.434Z,12.46
2023-04-22T17:42:45.753Z,12.78
2023-04-22T17:45:14.184Z,12.37
2023-04-22T17:47:41.855Z,12.28
2023-04-22T17:50:09.887Z,13.08
2023-04-22T17:52:37.652Z,11.98
2023-04-22T17:55:06.116Z,11.65
2023-04-22T17:57:33.947Z,11.92
2023-04-22T18:00:01.725Z,12.84
2023-04-22T18:02:29.509Z,12.92
2023-04-22T18:04:57.537Z,13.28
2023-04-22T18:07:25.272Z,13.36
2023-04-22T18:09:52.962Z,13.34
2023-04-22T18:12:24.156Z,13.32
2023-04-22T18:14:52.098Z,13.00
2023-04-22T18:17:20.280Z,13.36
2023-04-22T18:19:51.274Z,13.23
2023-04-22T18:22:19.172Z,13.27
2023-04-22T18:24:46.894Z,13.15
2023-04-22T18:27:14.768Z,12.17
2023-04-22T18:29:42.751Z,12.72
2023-04-22T18:32:11.165Z,12.73
2023-04-22T18:34:39.691Z,12.55
2023-04-22T18:37:07.560Z,12.88
2023-04-22T18:39:35.655Z,12.84
2023-04-22T18:42:04.448Z,12.79
2023-04-22T18:44:32.179Z,12.76
2023-04-22T18:47:00.419Z,12.54
2023-04-22T18:49:28.135Z,12.47
2023-04-22T18:51:55.853Z,12.25
2023-04-22T18:54:23.563Z,12.37
2023-04-22T18:56:51.486Z,12.40
2023-04-22T18:59:19.133Z,12.30
2023-04-22T19:01:46.923Z,12.48
2023-04-22T19:04:14.731Z,12.64
2023-04-22T19:06:42.589Z,12.59
2023-04-22T19:09:10.311Z,12.29
2023-04-22T19:11:38.025Z,12.40
2023-04-22T19:14:05.920Z,11.59
2023-04-22T19:16:33.931Z,11.98
2023-04-22T19:19:01.850Z,11.94
2023-04-22T19:21:30.058Z,12.06
2023-04-22T19:23:57.895Z,12.07
2023-04-22T19:26:28.993Z,12.03
2023-04-22T19:28:56.790Z,11.71
2023-04-22T19:31:25.280Z,11.52
2023-04-22T19:33:53.109Z,11.50
2023-04-22T19:36:20.887Z,11.66
2023-04-22T19:38:48.566Z,10.92
2023-04-22T19:41:16.880Z,11.20
2023-04-22T19:43:44.597Z,11.26
2023-04-22T19:46:12.321Z,11.32
2023-04-22T19:48:40.774Z,10.88
2023-04-22T19:51:10.079Z,10.93
2023-04-22T19:53:37.951Z,10.35
2023-04-22T19:56:05.678Z,10.19
2023-04-22T19:58:33.379Z,10.71
2023-04-22T20:01:01.283Z,10.86
2023-04-22T20:03:29.339Z,11.07
2023-04-22T20:05:57.905Z,9.96
2023-04-22T20:08:27.419Z,9.92
2023-04-22T20:10:55.216Z,9.48
2023-04-22T20:13:23.024Z,9.22
2023-04-22T20:15:51.022Z,9.34
2023-04-22T20:18:18.794Z,9.45
2023-04-22T20:20:49.863Z,9.59
2023-04-22T20:23:17.576Z,9.72
2023-04-22T20:25:45.664Z,10.00
2023-04-22T20:28:13.743Z,9.88
2023-04-22T20:30:41.687Z,9.72
2023-04-22T20:33:12.238Z,9.78
2023-04-22T20:35:40.361Z,9.35
2023-04-22T20:38:08.955Z,9.22
2023-04-22T20:40:36.736Z,9.04
2023-04-22T20:43:04.845Z,9.10
2023-04-22T20:45:32.625Z,9.30
2023-04-22T20:48:00.560Z,9.63
2023-04-22T20:50:33.367Z,9.87
2023-04-22T20:53:01.330Z,9.99
2023-04-22T20:55:29.022Z,10.08
2023-04-22T20:57:56.792Z,10.02
2023-04-22T21:00:24.949Z,9.14
2023-04-22T21:02:52.908Z,8.42
2023-04-22T21:05:21.933Z,8.60
2023-04-22T21:07:52.077Z,8.77
2023-04-22T21:10:20.771Z,8.85
2023-04-22T21:12:48.910Z,8.75
2023-04-22T21:15:16.986Z,8.71
2023-04-22T21:17:51.712Z,8.78
2023-04-22T21:20:19.821Z,9.02
2023-04-22T21:22:47.518Z,9.22
2023-04-22T21:25:19.675Z,8.73
2023-04-22T21:27:47.719Z,8.95
2023-04-22T21:30:15.978Z,9.02
2023-04-22T21:32:44.192Z,8.68
2023-04-22T21:35:11.927Z,8.97
2023-04-22T21:37:39.663Z,9.03
2023-04-22T21:40:08.072Z,9.14
2023-04-22T21:42:35.921Z,8.95
2023-04-22T21:45:04.434Z,8.62
2023-04-22T21:47:32.316Z,8.54
2023-04-22T21:50:00.000Z,8.23
2023-04-22T21:52:27.732Z,8.71
2023-04-22T21:54:55.640Z,8.54
2023-04-22T21:57:23.536Z,8.47
2023-04-22T21:59:51.184Z,8.55
2023-04-22T22:02:19.257Z,8.47
2023-04-22T22:04:47.169Z,8.30
2023-04-22T22:07:17.479Z,8.55
2023-04-22T22:09:46.452Z,8.59
2023-04-22T22:12:15.516Z,7.68
2023-04-22T22:14:43.436Z,8.02
2023-04-22T22:17:12.527Z,8.33
2023-04-22T22:19:41.947Z,8.21
2023-04-22T22:22:09.704Z,8.35
2023-04-22T22:24:37.416Z,7.90
2023-04-22T22:27:05.486Z,7.93
2023-04-22T22:29:33.176Z,7.46
2023-04-22T22:32:00.980Z,7.68
2023-04-22T22:34:29.411Z,7.83
2023-04-22T22:36:57.209Z,7.88
2023-04-22T22:39:24.978Z,8.36
2023-04-22T22:41:52.896Z,8.46
2023-04-22T22:44:20.604Z,8.46
2023-04-22T22:46:48.404Z,7.71
2023-04-22T22:49:16.100Z,7.91
2023-04-22T22:51:43.896Z,7.39
2023-04-22T22:54:11.840Z,7.30
2023-04-22T22:56:39.663Z,7.55
2023-04-22T22:59:07.343Z,7.93
2023-04-22T23:01:35.195Z,7.93
2023-04-22T23:04:03.206Z,8.02
2023-04-22T23:06:31.953Z,7.49
2023-04-22T23:08:59.705Z,7.58
2023-04-22T23:11:27.449Z,7.86
2023-04-22T23:13:55.152Z,7.08
2023-04-22T23:16:23.049Z,7.47
2023-04-22T23:18:50.715Z,7.77
2023-04-22T23:21:19.149Z,6.55
2023-04-22T23:23:46.817Z,7.22
2023-04-22T23:26:14.835Z,7.34
2023-04-22T23:28:42.884Z,6.62
2023-04-22T23:31:10.756Z,6.16
2023-04-22T23:33:39.738Z,6.85
2023-04-22T23:36:07.974Z,7.23
2023-04-22T23:38:35.748Z,6.76
2023-04-22T23:41:03.419Z,6.65
2023-04-22T23:43:31.164Z,7.19
2023-04-22T23:45:58.928Z,7.03
2023-04-22T23:48:26.706Z,7.11
2023-04-22T23:50:54.413Z,7.31
2023-04-22T23:53:22.224Z,7.07
2023-04-22T23:55:50.174Z,5.92
2023-04-22T23:58:17.985Z,6.52
